createdAt,value
2022-11-29T00:01:26.501Z,13.70
2022-11-29T00:03:53.222Z,14.00
2022-11-29T00:06:20.921Z,12.98
2022-11-29T00:08:47.687Z,13.45
2022-11-29T00:11:35.364Z,13.27
2022-11-29T00:14:01.788Z,12.93
2022-11-29T00:16:28.729Z,13.40
2022-11-29T00:18:55.163Z,12.98
2022-11-29T00:21:21.553Z,12.73
2022-11-29T00:23:47.932Z,13.60
2022-11-29T00:26:14.382Z,14.18
2022-11-29T00:28:40.796Z,13.13
2022-11-29T00:31:15.223Z,13.73
2022-11-29T00:33:41.655Z,13.27
2022-11-29T00:36:08.122Z,13.75
2022-11-29T00:38:34.504Z,14.20
2022-11-29T00:41:00.953Z,13.43
2022-11-29T00:43:27.453Z,13.25
2022-11-29T00:45:53.971Z,13.80
2022-11-29T00:48:20.369Z,13.55
2022-11-29T00:50:46.832Z,13.95
2022-11-29T00:53:13.227Z,14.52
2022-11-29T00:55:39.664Z,13.25
2022-11-29T00:58:06.315Z,12.93
2022-11-29T01:00:32.836Z,14.23
2022-11-29T01:02:59.279Z,13.80
2022-11-29T01:05:25.672Z,14.77
2022-11-29T01:07:52.217Z,13.77
2022-11-29T01:10:18.803Z,13.82
2022-11-29T01:12:45.374Z,14.15
2022-11-29T01:15:11.857Z,13.88
2022-11-29T01:17:38.689Z,14.15
2022-11-29T01:20:06.084Z,12.98
2022-11-29T01:22:33.726Z,13.20
2022-11-29T01:25:00.164Z,13.80
2022-11-29T01:27:26.575Z,13.57
2022-11-29T01:29:52.989Z,13.48
2022-11-29T01:32:19.424Z,13.18
2022-11-29T01:34:46.243Z,13.85
2022-11-29T01:37:12.844Z,13.60
2022-11-29T01:39:39.375Z,13.02
2022-11-29T01:42:05.807Z,13.25
2022-11-29T01:44:32.167Z,13.50
2022-11-29T01:46:58.561Z,13.25
2022-11-29T01:49:24.940Z,12.98
2022-11-29T01:52:02.739Z,12.57
2022-11-29T01:54:29.867Z,12.23
2022-11-29T01:56:56.328Z,12.45
2022-11-29T01:59:23.727Z,11.90
2022-11-29T02:01:50.881Z,11.68
2022-11-29T02:04:18.012Z,11.88
2022-11-29T02:06:44.474Z,10.52
2022-11-29T02:09:21.754Z,10.13
2022-11-29T02:11:48.154Z,10.45
2022-11-29T02:14:29.762Z,10.45
2022-11-29T02:17:15.093Z,9.70
2022-11-29T02:19:53.916Z,10.30
2022-11-29T02:22:32.993Z,10.25
2022-11-29T02:25:10.948Z,9.60
2022-11-29T02:28:00.693Z,9.48
2022-11-29T02:30:29.961Z,9.65
2022-11-29T02:33:05.631Z,10.10
2022-11-29T02:35:47.271Z,9.35
2022-11-29T02:38:32.572Z,8.63
2022-11-29T02:41:13.938Z,9.40
2022-11-29T02:43:57.877Z,9.20
2022-11-29T02:46:27.288Z,9.55
2022-11-29T02:48:53.713Z,9.43
2022-11-29T02:51:39.137Z,9.68
2022-11-29T02:54:08.696Z,9.40
2022-11-29T02:56:35.242Z,9.98
2022-11-29T02:59:06.092Z,10.13
2022-11-29T03:01:48.581Z,9.23
2022-11-29T03:04:25.971Z,8.88
2022-11-29T03:07:02.244Z,9.75
2022-11-29T03:09:48.670Z,9.20
2022-11-29T03:12:20.914Z,9.60
2022-11-29T03:14:55.841Z,9.60
2022-11-29T03:17:35.183Z,9.38
2022-11-29T03:20:01.803Z,10.73
2022-11-29T03:22:28.210Z,9.80
2022-11-29T03:24:56.164Z,9.38
2022-11-29T03:27:36.934Z,9.75
2022-11-29T03:30:05.957Z,9.82
2022-11-29T03:32:32.309Z,10.10
2022-11-29T03:35:28.350Z,10.05
2022-11-29T03:37:55.272Z,10.15
2022-11-29T03:40:26.132Z,10.45
2022-11-29T03:43:01.750Z,9.48
2022-11-29T03:45:44.058Z,9.82
2022-11-29T03:48:14.689Z,10.55
2022-11-29T03:50:44.151Z,10.77
2022-11-29T03:53:19.979Z,10.27
2022-11-29T03:55:48.917Z,9.20
2022-11-29T03:58:21.128Z,9.63
2022-11-29T04:00:47.459Z,9.52
2022-11-29T04:03:38.624Z,9.35
2022-11-29T04:06:18.883Z,9.45
2022-11-29T04:09:07.821Z,8.93
2022-11-29T04:11:59.759Z,9.10
2022-11-29T04:14:32.206Z,9.27
2022-11-29T04:17:13.941Z,9.75
2022-11-29T04:19:46.321Z,9.23
2022-11-29T04:22:31.614Z,9.80
2022-11-29T04:25:16.276Z,9.20
2022-11-29T04:28:01.375Z,9.10
2022-11-29T04:30:30.904Z,9.13
2022-11-29T04:33:03.399Z,9.23
2022-11-29T04:35:38.789Z,9.93
2022-11-29T04:38:05.329Z,9.88
2022-11-29T04:40:40.888Z,9.25
2022-11-29T04:43:25.455Z,10.02
2022-11-29T04:46:07.158Z,10.25
2022-11-29T04:48:40.544Z,9.95
2022-11-29T04:51:25.796Z,9.52
2022-11-29T04:54:09.138Z,9.00
2022-11-29T04:56:44.630Z,10.07
2022-11-29T04:59:29.869Z,10.43
2022-11-29T05:02:14.637Z,10.00
2022-11-29T05:04:40.987Z,9.82
2022-11-29T05:07:11.652Z,9.57
2022-11-29T05:09:46.835Z,9.57
2022-11-29T05:12:32.227Z,10.07
2022-11-29T05:15:10.792Z,9.95
2022-11-29T05:17:40.240Z,9.25
2022-11-29T05:20:23.027Z,9.57
2022-11-29T05:22:49.379Z,8.93
2022-11-29T05:25:34.431Z,10.05
2022-11-29T05:28:16.499Z,9.98
2022-11-29T05:30:45.969Z,9.77
2022-11-29T05:33:28.948Z,10.13
2022-11-29T05:36:15.597Z,10.73
2022-11-29T05:38:53.291Z,12.25
2022-11-29T05:41:48.889Z,11.57
2022-11-29T05:44:33.820Z,10.00
2022-11-29T05:47:01.577Z,10.77
2022-11-29T05:49:27.921Z,10.65
2022-11-29T05:52:17.537Z,10.82
2022-11-29T05:54:48.548Z,9.40
2022-11-29T05:57:14.923Z,9.95
2022-11-29T05:59:42.131Z,10.02
2022-11-29T06:02:20.759Z,9.93
2022-11-29T06:05:03.932Z,9.38
2022-11-29T06:07:38.771Z,9.48
2022-11-29T06:10:06.733Z,9.88
2022-11-29T06:12:35.818Z,8.88
2022-11-29T06:15:13.001Z,10.27
2022-11-29T06:18:01.155Z,11.13
2022-11-29T06:20:38.775Z,10.23
2022-11-29T06:23:20.273Z,10.88
2022-11-29T06:25:47.279Z,11.80
2022-11-29T06:28:25.888Z,10.27
2022-11-29T06:30:55.259Z,10.98
2022-11-29T06:33:37.934Z,12.05
2022-11-29T06:36:11.356Z,10.68
2022-11-29T06:38:37.869Z,10.38
2022-11-29T06:41:04.504Z,10.23
2022-11-29T06:43:31.516Z,9.65
2022-11-29T06:46:05.768Z,9.50
2022-11-29T06:48:38.735Z,10.65
2022-11-29T06:51:20.069Z,10.15
2022-11-29T06:53:58.644Z,10.55
2022-11-29T06:56:43.310Z,11.63
2022-11-29T06:59:12.815Z,11.32
2022-11-29T07:01:42.026Z,10.45
2022-11-29T07:04:14.819Z,10.18
2022-11-29T07:06:41.240Z,9.77
2022-11-29T07:09:28.562Z,10.80
2022-11-29T07:11:55.136Z,10.65
2022-11-29T07:14:21.680Z,10.43
2022-11-29T07:17:09.063Z,12.35
2022-11-29T07:19:38.191Z,11.98
2022-11-29T07:22:04.588Z,10.75
2022-11-29T07:24:40.111Z,11.23
2022-11-29T07:27:12.586Z,10.80
2022-11-29T07:29:47.405Z,13.00
2022-11-29T07:32:13.735Z,10.90
2022-11-29T07:34:43.072Z,10.82
2022-11-29T07:37:14.890Z,11.20
2022-11-29T07:39:44.974Z,10.98
2022-11-29T07:42:26.430Z,11.20
2022-11-29T07:44:52.896Z,10.63
2022-11-29T07:47:19.313Z,10.90
2022-11-29T07:49:45.671Z,11.20
2022-11-29T07:52:13.121Z,11.85
2022-11-29T07:54:40.021Z,11.02
2022-11-29T07:57:06.444Z,11.13
2022-11-29T07:59:32.892Z,11.63
2022-11-29T08:01:59.401Z,11.70
2022-11-29T08:04:25.824Z,11.70
2022-11-29T08:07:00.528Z,11.85
2022-11-29T08:09:26.888Z,10.70
2022-11-29T08:11:53.313Z,10.15
2022-11-29T08:14:19.746Z,11.55
2022-11-29T08:16:46.268Z,11.13
2022-11-29T08:19:12.678Z,11.57
2022-11-29T08:21:39.071Z,11.50
2022-11-29T08:24:05.585Z,10.43
2022-11-29T08:26:32.144Z,10.93
2022-11-29T08:28:58.600Z,10.80
2022-11-29T08:31:25.107Z,12.05
2022-11-29T08:33:51.568Z,10.82
2022-11-29T08:36:19.390Z,11.88
2022-11-29T08:38:46.187Z,10.48
2022-11-29T08:41:13.952Z,10.35
2022-11-29T08:43:40.860Z,10.30
2022-11-29T08:46:07.885Z,9.60
2022-11-29T08:48:35.593Z,10.20
2022-11-29T08:51:02.000Z,10.10
2022-11-29T08:53:44.499Z,11.15
2022-11-29T08:56:41.867Z,11.23
2022-11-29T08:58:58.606Z,10.73
2022-11-29T09:01:25.199Z,10.80
2022-11-29T09:04:02.739Z,10.18
2022-11-29T09:06:31.001Z,10.52
2022-11-29T09:08:57.948Z,14.43
2022-11-29T09:11:25.472Z,10.15
2022-11-29T09:13:53.478Z,9.85
2022-11-29T09:16:21.386Z,9.18
2022-11-29T09:18:52.101Z,9.35
2022-11-29T09:21:18.901Z,8.95
2022-11-29T09:23:45.672Z,9.45
2022-11-29T09:26:16.274Z,9.02
2022-11-29T09:28:42.662Z,11.20
2022-11-29T09:31:10.531Z,9.27
2022-11-29T09:33:36.981Z,9.45
2022-11-29T09:36:03.633Z,9.70
2022-11-29T09:38:30.059Z,9.95
2022-11-29T09:40:57.395Z,9.02
2022-11-29T09:43:27.707Z,8.82
2022-11-29T09:45:59.436Z,9.35
2022-11-29T09:48:27.392Z,12.10
2022-11-29T09:50:56.774Z,10.27
2022-11-29T09:53:35.874Z,9.27
2022-11-29T09:56:05.677Z,8.80
2022-11-29T09:58:36.999Z,8.75
2022-11-29T10:01:06.468Z,9.43
2022-11-29T10:03:36.271Z,9.23
2022-11-29T10:06:07.170Z,9.68
2022-11-29T10:08:36.204Z,9.50
2022-11-29T10:11:22.914Z,9.77
2022-11-29T10:13:51.967Z,9.52
2022-11-29T10:16:23.622Z,9.30
2022-11-29T10:18:54.516Z,10.00
2022-11-29T10:21:22.725Z,9.27
2022-11-29T10:23:52.141Z,10.25
2022-11-29T10:26:20.638Z,9.23
2022-11-29T10:28:48.647Z,9.65
2022-11-29T10:31:22.581Z,8.98
2022-11-29T10:36:16.774Z,9.40
2022-11-29T10:38:44.120Z,9.27
2022-11-29T10:41:13.680Z,9.30
2022-11-29T10:43:40.260Z,9.73
2022-11-29T10:46:12.419Z,8.82
2022-11-29T10:48:38.837Z,9.23
2022-11-29T10:51:12.249Z,9.63
2022-11-29T10:53:38.703Z,8.55
2022-11-29T10:56:24.079Z,7.70
2022-11-29T10:59:05.173Z,8.15
2022-11-29T11:01:33.522Z,8.68
2022-11-29T11:04:00.628Z,7.93
2022-11-29T11:06:28.069Z,8.30
2022-11-29T11:08:55.574Z,9.02
2022-11-29T11:11:26.985Z,9.45
2022-11-29T11:14:00.672Z,9.00
2022-11-29T11:16:27.188Z,9.10
2022-11-29T11:18:53.612Z,9.93
2022-11-29T11:21:21.156Z,8.65
2022-11-29T11:23:53.779Z,8.98
2022-11-29T11:26:20.593Z,9.80
2022-11-29T11:28:46.948Z,10.32
2022-11-29T11:31:13.606Z,9.63
2022-11-29T11:33:40.005Z,8.20
2022-11-29T11:36:06.567Z,8.30
2022-11-29T11:38:34.029Z,8.50
2022-11-29T11:41:20.715Z,8.93
2022-11-29T11:43:58.292Z,8.73
2022-11-29T11:46:44.962Z,8.45
2022-11-29T11:49:12.877Z,8.70
2022-11-29T11:51:41.078Z,9.48
2022-11-29T11:54:13.556Z,9.40
2022-11-29T11:56:39.981Z,9.45
2022-11-29T11:59:06.464Z,9.20
2022-11-29T12:01:38.912Z,9.68
2022-11-29T12:04:14.643Z,8.88
2022-11-29T12:06:47.811Z,9.57
2022-11-29T12:09:35.748Z,10.60
2022-11-29T12:12:20.941Z,9.98
2022-11-29T12:14:56.158Z,10.32
2022-11-29T12:17:28.741Z,11.00
2022-11-29T12:19:59.988Z,11.02
2022-11-29T12:22:30.704Z,9.68
2022-11-29T12:24:59.910Z,12.25
2022-11-29T12:27:26.258Z,9.70
2022-11-29T12:29:52.665Z,9.15
2022-11-29T12:32:31.212Z,9.80
2022-11-29T12:35:18.971Z,9.55
2022-11-29T12:38:05.954Z,11.00
2022-11-29T12:40:43.313Z,9.77
2022-11-29T12:43:18.730Z,9.52
2022-11-29T12:45:48.855Z,9.55
2022-11-29T12:48:25.920Z,9.75
2022-11-29T12:50:58.424Z,10.45
2022-11-29T12:53:30.307Z,10.02
2022-11-29T12:55:59.738Z,10.27
2022-11-29T12:58:31.434Z,10.85
2022-11-29T13:01:06.677Z,9.70
2022-11-29T13:03:36.034Z,10.38
2022-11-29T13:06:02.393Z,11.63
2022-11-29T13:08:41.668Z,9.48
2022-11-29T13:11:19.266Z,11.00
2022-11-29T13:14:13.832Z,10.32
2022-11-29T13:16:54.289Z,10.60
2022-11-29T13:19:20.674Z,10.38
2022-11-29T13:21:58.697Z,10.88
2022-11-29T13:24:28.205Z,11.27
2022-11-29T13:26:55.187Z,11.73
2022-11-29T13:29:21.843Z,10.38
2022-11-29T13:31:48.802Z,11.05
2022-11-29T13:34:41.248Z,11.25
2022-11-29T13:37:15.255Z,11.80
2022-11-29T13:42:28.575Z,11.55
2022-11-29T13:45:13.201Z,12.93
2022-11-29T13:47:49.731Z,11.85
2022-11-29T13:50:36.402Z,11.82
2022-11-29T13:53:11.647Z,12.65
2022-11-29T13:55:43.665Z,12.85
2022-11-29T13:58:17.718Z,12.10
2022-11-29T14:00:44.549Z,12.48
2022-11-29T14:03:23.011Z,12.40
2022-11-29T14:05:54.246Z,12.25
2022-11-29T14:08:23.442Z,13.18
2022-11-29T14:10:50.590Z,12.05
2022-11-29T14:13:17.129Z,12.25
2022-11-29T14:15:43.642Z,13.88
2022-11-29T14:18:29.982Z,12.48
2022-11-29T14:20:57.156Z,11.50
2022-11-29T14:23:32.307Z,12.57
2022-11-29T14:25:58.658Z,11.43
2022-11-29T14:28:40.560Z,11.10
2022-11-29T14:31:07.427Z,10.13
2022-11-29T14:33:52.764Z,11.48
2022-11-29T14:36:28.196Z,10.30
2022-11-29T14:38:57.606Z,10.55
2022-11-29T14:41:42.434Z,9.93
2022-11-29T14:44:18.067Z,11.20
2022-11-29T14:46:45.362Z,10.35
2022-11-29T14:49:21.298Z,10.93
2022-11-29T14:52:06.460Z,11.02
2022-11-29T14:54:33.673Z,10.38
2022-11-29T14:57:19.959Z,10.45
2022-11-29T14:59:52.802Z,11.90
2022-11-29T15:02:34.623Z,13.88
2022-11-29T15:05:13.190Z,10.57
2022-11-29T15:07:43.390Z,11.10
2022-11-29T15:10:16.084Z,10.30
2022-11-29T15:12:42.539Z,11.98
2022-11-29T15:15:32.649Z,11.45
2022-11-29T15:18:17.822Z,10.38
2022-11-29T15:21:04.437Z,11.48
2022-11-29T15:23:39.265Z,10.82
2022-11-29T15:26:05.608Z,11.25
2022-11-29T15:28:31.968Z,11.65
2022-11-29T15:31:05.624Z,11.43
2022-11-29T15:33:33.046Z,11.18
2022-11-29T15:36:06.847Z,12.40
2022-11-29T15:38:52.035Z,11.95
2022-11-29T15:41:38.642Z,12.05
2022-11-29T15:44:06.320Z,12.13
2022-11-29T15:46:34.249Z,12.45
2022-11-29T15:49:22.812Z,11.43
2022-11-29T15:51:51.499Z,13.68
2022-11-29T15:54:23.932Z,12.43
2022-11-29T15:56:53.569Z,11.27
2022-11-29T15:59:22.695Z,11.13
2022-11-29T16:01:51.239Z,11.93
2022-11-29T16:04:19.177Z,13.07
2022-11-29T16:06:46.156Z,11.13
2022-11-29T16:09:14.176Z,12.13
2022-11-29T16:11:40.882Z,44.40
2022-11-29T16:14:29.132Z,24.35
2022-11-29T16:16:57.675Z,12.57
2022-11-29T16:19:29.762Z,12.95
2022-11-29T16:22:00.587Z,13.48
2022-11-29T16:24:27.023Z,14.23
2022-11-29T16:26:54.211Z,13.90
2022-11-29T16:29:26.800Z,15.23
2022-11-29T16:31:53.488Z,13.40
2022-11-29T16:34:23.027Z,12.30
2022-11-29T16:37:19.427Z,13.77
2022-11-29T16:39:47.836Z,12.40
2022-11-29T16:42:14.688Z,14.07
2022-11-29T16:44:41.347Z,13.95
2022-11-29T16:47:12.169Z,16.55
2022-11-29T16:49:38.579Z,22.67
2022-11-29T16:52:22.071Z,22.88
2022-11-29T16:54:48.794Z,13.23
2022-11-29T16:57:15.189Z,14.55
2022-11-29T16:59:41.622Z,14.43
2022-11-29T17:02:10.587Z,14.45
2022-11-29T17:04:37.050Z,14.93
2022-11-29T17:07:05.700Z,14.77
2022-11-29T17:09:33.064Z,14.60
2022-11-29T17:12:00.102Z,14.85
2022-11-29T17:14:26.733Z,14.25
2022-11-29T17:16:53.223Z,14.90
2022-11-29T17:19:20.620Z,14.40
2022-11-29T17:21:47.533Z,14.95
2022-11-29T17:24:15.710Z,14.52
2022-11-29T17:26:42.900Z,14.55
2022-11-29T17:29:10.208Z,14.63
2022-11-29T17:31:36.775Z,13.85
2022-11-29T17:34:03.773Z,14.82
2022-11-29T17:36:30.658Z,14.20
2022-11-29T17:38:58.509Z,14.10
2022-11-29T17:41:25.936Z,15.55
2022-11-29T17:43:53.259Z,36.95
2022-11-29T17:46:23.660Z,18.60
2022-11-29T17:48:50.402Z,14.82
2022-11-29T17:51:50.144Z,14.88
2022-11-29T17:54:04.541Z,14.88
2022-11-29T17:56:31.111Z,15.40
2022-11-29T17:58:58.598Z,16.63
2022-11-29T18:01:26.140Z,15.93
2022-11-29T18:03:53.825Z,16.42
2022-11-29T18:06:21.201Z,16.00
2022-11-29T18:08:49.053Z,15.52
2022-11-29T18:11:26.308Z,14.98
2022-11-29T18:13:53.489Z,14.68
2022-11-29T18:16:20.843Z,14.30
2022-11-29T18:18:47.426Z,15.10
2022-11-29T18:21:14.099Z,14.95
2022-11-29T18:23:41.842Z,15.35
2022-11-29T18:26:10.583Z,16.20
2022-11-29T18:28:37.863Z,16.45
2022-11-29T18:31:14.786Z,15.75
2022-11-29T18:33:41.997Z,15.45
2022-11-29T18:36:10.891Z,15.32
2022-11-29T18:38:38.094Z,15.07
2022-11-29T18:41:08.591Z,13.88
2022-11-29T18:43:35.365Z,13.77
2022-11-29T18:46:07.936Z,14.05
2022-11-29T18:48:34.344Z,14.27
2022-11-29T18:51:01.421Z,14.35
2022-11-29T18:53:27.802Z,13.68
2022-11-29T18:56:01.439Z,14.48
2022-11-29T18:58:27.817Z,14.43
2022-11-29T19:00:54.179Z,14.40
2022-11-29T19:03:20.567Z,14.65
2022-11-29T19:05:53.960Z,14.18
2022-11-29T19:08:20.325Z,16.48
2022-11-29T19:10:46.713Z,14.82
2022-11-29T19:13:13.086Z,14.65
2022-11-29T19:15:39.711Z,16.38
2022-11-29T19:18:06.123Z,17.33
2022-11-29T19:20:34.352Z,15.48
2022-11-29T19:23:01.020Z,16.67
2022-11-29T19:25:27.445Z,16.67
2022-11-29T19:27:53.821Z,17.77
2022-11-29T19:30:20.237Z,17.48
2022-11-29T19:32:46.601Z,16.27
2022-11-29T19:35:13.035Z,16.27
2022-11-29T19:37:39.487Z,16.30
2022-11-29T19:40:06.264Z,16.90
2022-11-29T19:42:32.667Z,16.63
2022-11-29T19:45:16.370Z,15.95
2022-11-29T19:47:43.720Z,18.27
2022-11-29T19:50:10.115Z,16.60
2022-11-29T19:52:36.510Z,15.98
2022-11-29T19:55:02.935Z,16.30
2022-11-29T19:57:29.288Z,17.45
2022-11-29T19:59:55.713Z,16.70
2022-11-29T20:02:22.172Z,16.55
2022-11-29T20:04:49.686Z,15.65
2022-11-29T20:07:16.170Z,15.70
2022-11-29T20:09:42.659Z,16.83
2022-11-29T20:12:09.056Z,16.63
2022-11-29T20:14:35.509Z,16.70
2022-11-29T20:17:02.026Z,17.88
2022-11-29T20:19:28.384Z,19.52
2022-11-29T20:21:54.884Z,16.83
2022-11-29T20:24:21.283Z,17.25
2022-11-29T20:26:48.177Z,17.42
2022-11-29T20:29:15.219Z,18.35
2022-11-29T20:31:49.141Z,18.20
2022-11-29T20:34:16.864Z,16.92
2022-11-29T20:37:02.207Z,18.67
2022-11-29T20:39:37.483Z,17.38
2022-11-29T20:42:16.275Z,16.88
2022-11-29T20:44:46.945Z,17.70
2022-11-29T20:47:17.703Z,17.42
2022-11-29T20:49:44.880Z,17.38
2022-11-29T20:52:15.988Z,16.27
2022-11-29T20:54:42.401Z,16.73
2022-11-29T20:57:08.851Z,17.23
2022-11-29T20:59:35.232Z,16.35
2022-11-29T21:02:02.600Z,15.32
2022-11-29T21:04:29.053Z,14.70
2022-11-29T21:06:55.405Z,16.88
2022-11-29T21:09:21.771Z,15.65
2022-11-29T21:11:48.267Z,15.77
2022-11-29T21:14:14.811Z,17.38
2022-11-29T21:16:41.590Z,15.45
2022-11-29T21:19:09.945Z,15.18
2022-11-29T21:21:50.954Z,16.38
2022-11-29T21:24:20.211Z,16.20
2022-11-29T21:26:50.071Z,16.20
2022-11-29T21:29:18.244Z,16.13
2022-11-29T21:31:45.403Z,14.95
2022-11-29T21:34:11.973Z,15.20
2022-11-29T21:36:38.620Z,16.13
2022-11-29T21:39:06.415Z,15.38
2022-11-29T21:41:32.960Z,15.57
2022-11-29T21:44:06.550Z,14.00
2022-11-29T21:46:34.455Z,14.88
2022-11-29T21:49:00.858Z,17.17
2022-11-29T21:51:27.270Z,16.30
2022-11-29T21:53:53.725Z,28.00
2022-11-29T21:56:20.116Z,20.48
2022-11-29T21:58:46.571Z,22.42
2022-11-29T22:01:17.190Z,19.63
2022-11-29T22:03:43.843Z,19.90
2022-11-29T22:06:11.680Z,17.88
2022-11-29T22:08:39.036Z,17.95
2022-11-29T22:11:06.709Z,16.55
2022-11-29T22:13:33.488Z,16.48
2022-11-29T22:16:06.887Z,15.23
2022-11-29T22:18:33.320Z,15.13
2022-11-29T22:21:04.053Z,16.63
2022-11-29T22:23:30.756Z,16.52
2022-11-29T22:26:01.485Z,18.35
2022-11-29T22:28:27.843Z,16.40
2022-11-29T22:31:00.697Z,17.95
2022-11-29T22:33:29.364Z,16.92
2022-11-29T22:35:55.764Z,17.45
2022-11-29T22:38:22.146Z,16.40
2022-11-29T22:40:48.546Z,16.45
2022-11-29T22:43:16.035Z,17.42
2022-11-29T22:45:42.384Z,17.70
2022-11-29T22:48:08.799Z,16.98
2022-11-29T22:50:35.171Z,17.55
2022-11-29T22:53:01.502Z,17.98
2022-11-29T22:55:27.900Z,17.50
2022-11-29T22:57:54.267Z,15.85
2022-11-29T23:00:20.773Z,16.30
2022-11-29T23:02:47.135Z,16.48
2022-11-29T23:05:13.541Z,16.52
2022-11-29T23:07:40.265Z,17.38
2022-11-29T23:10:07.037Z,15.63
2022-11-29T23:12:33.412Z,15.40
2022-11-29T23:15:01.921Z,16.20
2022-11-29T23:17:28.306Z,15.05
2022-11-29T23:19:54.778Z,14.82
2022-11-29T23:22:21.239Z,15.40
2022-11-29T23:24:47.785Z,15.50
2022-11-29T23:27:14.700Z,15.63
2022-11-29T23:29:41.028Z,14.68
2022-11-29T23:32:07.522Z,15.43
2022-11-29T23:34:34.004Z,15.45
2022-11-29T23:37:00.418Z,14.52
2022-11-29T23:39:26.825Z,14.38
2022-11-29T23:41:53.185Z,14.57
2022-11-29T23:44:19.574Z,13.98
2022-11-29T23:46:46.109Z,13.02
2022-11-29T23:49:12.464Z,14.48
2022-11-29T23:51:38.864Z,14.15
2022-11-29T23:54:05.799Z,14.38
2022-11-29T23:56:35.244Z,14.52
2022-11-29T23:59:01.887Z,14.93
